Sky — P3MJ8 — position and weather

sailwx.info

Track history (hours):
 
Tides and Currents Weather Stations Pressure Air Temp Water Temp Dewpoint Dewpoint Depression Visibility Wind Speed Wind Dir Waves Ship Positions

Sky

Last reported at 2018-Jun-09 13:00 UTC. Time now 2018-Jun-23 13:59 UTC.
Position N 31°35' E 032°20'.
Warning: this ship's position is 14 days out of date.

Length 80 m; draft 4.1 m.

Type: Neutral ship in war zone. MMSI: 212858000.

Date/timePositionNaut miles runAvg speedWind from/ knotsBaromVisibWave heightAir tempDewpointWater temp
2018-Jun-09 13:00N 31°35' E 032°20'125 7.8
2018-Jun-08 21:04N 33°36' E 032°54'17 9.4
2018-Jun-08 19:14N 33°53' E 032°57'3 9.6
2018-Jun-08 18:53N 33°57' E 032°58'12 9.3
2018-Jun-08 17:34N 34°09' E 032°60'4 9.4
2018-Jun-08 17:08N 34°13' E 033°01'1 9.1
2018-Jun-08 17:00N 34°14' E 033°01'510.5
2018-Jun-08 16:31N 34°19' E 033°03'4 7.8
2018-Jun-08 16:00N 34°23' E 033°03'12 9.7
2018-Jun-08 14:44N 34°35' E 033°04'4 9.4
2018-Jun-08 14:17N 34°39' E 033°02'1 2.1
2018-Jun-08 13:47N 34°39' E 033°01'0 0.0
2018-Jun-08 13:22N 34°39' E 033°01'0 0.0
2018-Jun-08 12:55N 34°39' E 033°01'0 0.0
2018-Jun-08 12:28N 34°39' E 033°01'0 0.0
2018-Jun-08 11:58N 34°39' E 033°01'0 0.0
2018-Jun-08 11:21N 34°39' E 033°01'0 0.0
2018-Jun-08 10:52N 34°39' E 033°01'0 0.1
2018-Jun-08 10:14N 34°39' E 033°01'0 0.1
2018-Jun-08 09:47N 34°39' E 033°01'0 0.2
2018-Jun-08 09:27N 34°39' E 033°01'0 0.0
2018-Jun-08 08:56N 34°39' E 033°01'0 0.0
2018-Jun-08 08:26N 34°39' E 033°01'0 0.0
2018-Jun-08 07:56N 34°39' E 033°01'0 0.0
2018-Jun-08 07:08N 34°39' E 033°01'0 0.0
2018-Jun-08 06:01N 34°39' E 033°01'0 0.0
2018-Jun-08 05:49N 34°39' E 033°01'0 0.0
2018-Jun-08 05:25N 34°39' E 033°01'0 0.0
2018-Jun-08 04:55N 34°39' E 033°01'0 0.0
2018-Jun-08 03:36N 34°39' E 033°01'0 0.0
2018-Jun-08 02:42N 34°39' E 033°01'0 0.1
2018-Jun-08 02:25N 34°39' E 033°01'0 0.1
2018-Jun-08 02:00N 34°39' E 033°01'0 0.1
2018-Jun-08 01:27N 34°39' E 033°01'0 0.0
2018-Jun-08 00:51N 34°39' E 033°01'0 0.1
2018-Jun-08 00:12N 34°39' E 033°01'0 0.0
2018-Jun-07 22:58N 34°39' E 033°01'0 0.2
2018-Jun-07 21:59N 34°39' E 033°01'0 0.0
2018-Jun-07 21:21N 34°39' E 033°01'0 0.1
2018-Jun-07 20:08N 34°39' E 033°01'0 0.0
2018-Jun-07 19:38N 34°39' E 033°01'0 0.0
2018-Jun-07 19:20N 34°39' E 033°01'0 0.0
2018-Jun-07 18:37N 34°39' E 033°01'0 0.0
2018-Jun-07 18:25N 34°39' E 033°01'0 0.0
2018-Jun-07 17:55N 34°39' E 033°01'0 0.0
2018-Jun-07 17:25N 34°39' E 033°01'0 0.0
2018-Jun-07 16:55N 34°39' E 033°01'0 0.2
2018-Jun-07 16:25N 34°39' E 033°01'0 0.1
2018-Jun-07 15:56N 34°39' E 033°01'0 0.2
2018-Jun-07 15:18N 34°39' E 033°01'0 0.0
2018-Jun-07 15:00N 34°39' E 033°01'0 0.0
2018-Jun-07 14:30N 34°39' E 033°01'0 0.0
2018-Jun-07 13:53N 34°39' E 033°01'0 0.0
2018-Jun-07 13:29N 34°39' E 033°01'0 0.0
2018-Jun-07 08:03N 34°39' E 033°01'0 0.0
2018-Jun-07 07:42N 34°39' E 033°01'0 0.0
2018-Jun-07 07:20N 34°39' E 033°01'0 0.1
2018-Jun-07 06:44N 34°39' E 033°01'0 0.0
2018-Jun-07 06:22N 34°39' E 033°01'512.4
2018-Jun-07 05:59N 34°42' E 033°05'5 2.9
2018-Jun-07 04:15N 34°39' E 033°01'0 0.0
2018-Jun-07 03:57N 34°39' E 033°01'0 0.0
2018-Jun-07 03:27N 34°39' E 033°01'0 0.0
2018-Jun-07 02:51N 34°39' E 033°01'0 0.1
2018-Jun-07 02:26N 34°39' E 033°01'0 0.0
2018-Jun-07 01:56N 34°39' E 033°01'0 0.0
2018-Jun-07 01:20N 34°39' E 033°01'0 0.0
2018-Jun-07 01:00N 34°39' E 033°01'0 0.1
2018-Jun-07 00:27N 34°39' E 033°01'0 0.0
2018-Jun-06 23:51N 34°39' E 033°01'0 0.0
2018-Jun-06 23:20N 34°39' E 033°01'0 0.0
2018-Jun-06 22:59N 34°39' E 033°01'0 0.0
2018-Jun-06 22:26N 34°39' E 033°01'0 0.0
2018-Jun-06 21:50N 34°39' E 033°01'0 0.7
2018-Jun-06 21:28N 34°39' E 033°01'0 1.0
2018-Jun-06 21:00N 34°39' E 033°01'1 0.0
2018-Jun-06 03:55N 34°39' E 033°02'1 0.2
2018-Jun-05 19:25N 34°39' E 033°01'  
2018-Jun-03 13:30N 34°39' E 033°01'0 0.0
2018-Jun-03 08:07N 34°39' E 033°01'0 0.0
2018-Jun-03 07:55N 34°39' E 033°01'0 0.0
2018-Jun-02 07:02N 34°39' E 033°01'0 0.0
2018-Jun-02 06:50N 34°39' E 033°01'0 0.0
2018-Jun-01 13:31N 34°39' E 033°01'0 0.0
2018-Jun-01 13:12N 34°39' E 033°01'0 0.0
2018-Jun-01 13:00N 34°39' E 033°01'0 0.0
2018-Jun-01 09:29N 34°39' E 033°01'0 0.0
2018-May-31 17:22N 34°39' E 033°01'0 0.0
2018-May-31 16:58N 34°39' E 033°01'0 0.0
2018-May-30 17:42N 34°39' E 033°01'0 0.0
2018-May-30 17:29N 34°39' E 033°01'  
Track history (hours):
 
Tides and Currents Weather Stations Pressure Air Temp Water Temp Dewpoint Dewpoint Depression Visibility Wind Speed Wind Dir Waves Ship Positions

Sky

Last reported at 2018-Jun-09 13:00 UTC. Time now 2018-Jun-23 13:59 UTC.
Position N 31°35' E 032°20'.
Warning: this ship's position is 14 days out of date.

Length 80 m; draft 4.1 m.

Type: Neutral ship in war zone. MMSI: 212858000.

Date/timePositionNaut miles runAvg speedWind from/ knotsBaromVisibWave heightAir tempDewpointWater temp
2018-Jun-09 13:00N 31°35' E 032°20'125 7.8
2018-Jun-08 21:04N 33°36' E 032°54'17 9.4
2018-Jun-08 19:14N 33°53' E 032°57'3 9.6
2018-Jun-08 18:53N 33°57' E 032°58'12 9.3
2018-Jun-08 17:34N 34°09' E 032°60'4 9.4
2018-Jun-08 17:08N 34°13' E 033°01'1 9.1
2018-Jun-08 17:00N 34°14' E 033°01'510.5
2018-Jun-08 16:31N 34°19' E 033°03'4 7.8
2018-Jun-08 16:00N 34°23' E 033°03'12 9.7
2018-Jun-08 14:44N 34°35' E 033°04'4 9.4
2018-Jun-08 14:17N 34°39' E 033°02'1 2.1
2018-Jun-08 13:47N 34°39' E 033°01'0 0.0
2018-Jun-08 13:22N 34°39' E 033°01'0 0.0
2018-Jun-08 12:55N 34°39' E 033°01'0 0.0
2018-Jun-08 12:28N 34°39' E 033°01'0 0.0
2018-Jun-08 11:58N 34°39' E 033°01'0 0.0
2018-Jun-08 11:21N 34°39' E 033°01'0 0.0
2018-Jun-08 10:52N 34°39' E 033°01'0 0.1
2018-Jun-08 10:14N 34°39' E 033°01'0 0.1
2018-Jun-08 09:47N 34°39' E 033°01'0 0.2
2018-Jun-08 09:27N 34°39' E 033°01'0 0.0
2018-Jun-08 08:56N 34°39' E 033°01'0 0.0
2018-Jun-08 08:26N 34°39' E 033°01'0 0.0
2018-Jun-08 07:56N 34°39' E 033°01'0 0.0
2018-Jun-08 07:08N 34°39' E 033°01'0 0.0
2018-Jun-08 06:01N 34°39' E 033°01'0 0.0
2018-Jun-08 05:49N 34°39' E 033°01'0 0.0
2018-Jun-08 05:25N 34°39' E 033°01'0 0.0
2018-Jun-08 04:55N 34°39' E 033°01'0 0.0
2018-Jun-08 03:36N 34°39' E 033°01'0 0.0
2018-Jun-08 02:42N 34°39' E 033°01'0 0.1
2018-Jun-08 02:25N 34°39' E 033°01'0 0.1
2018-Jun-08 02:00N 34°39' E 033°01'0 0.1
2018-Jun-08 01:27N 34°39' E 033°01'0 0.0
2018-Jun-08 00:51N 34°39' E 033°01'0 0.1
2018-Jun-08 00:12N 34°39' E 033°01'0 0.0
2018-Jun-07 22:58N 34°39' E 033°01'0 0.2
2018-Jun-07 21:59N 34°39' E 033°01'0 0.0
2018-Jun-07 21:21N 34°39' E 033°01'0 0.1
2018-Jun-07 20:08N 34°39' E 033°01'0 0.0
2018-Jun-07 19:38N 34°39' E 033°01'0 0.0
2018-Jun-07 19:20N 34°39' E 033°01'0 0.0
2018-Jun-07 18:37N 34°39' E 033°01'0 0.0
2018-Jun-07 18:25N 34°39' E 033°01'0 0.0
2018-Jun-07 17:55N 34°39' E 033°01'0 0.0
2018-Jun-07 17:25N 34°39' E 033°01'0 0.0
2018-Jun-07 16:55N 34°39' E 033°01'0 0.2
2018-Jun-07 16:25N 34°39' E 033°01'0 0.1
2018-Jun-07 15:56N 34°39' E 033°01'0 0.2
2018-Jun-07 15:18N 34°39' E 033°01'0 0.0
2018-Jun-07 15:00N 34°39' E 033°01'0 0.0
2018-Jun-07 14:30N 34°39' E 033°01'0 0.0
2018-Jun-07 13:53N 34°39' E 033°01'0 0.0
2018-Jun-07 13:29N 34°39' E 033°01'0 0.0
2018-Jun-07 08:03N 34°39' E 033°01'0 0.0
2018-Jun-07 07:42N 34°39' E 033°01'0 0.0
2018-Jun-07 07:20N 34°39' E 033°01'0 0.1
2018-Jun-07 06:44N 34°39' E 033°01'0 0.0
2018-Jun-07 06:22N 34°39' E 033°01'512.4
2018-Jun-07 05:59N 34°42' E 033°05'5 2.9
2018-Jun-07 04:15N 34°39' E 033°01'0 0.0
2018-Jun-07 03:57N 34°39' E 033°01'0 0.0
2018-Jun-07 03:27N 34°39' E 033°01'0 0.0
2018-Jun-07 02:51N 34°39' E 033°01'0 0.1
2018-Jun-07 02:26N 34°39' E 033°01'0 0.0
2018-Jun-07 01:56N 34°39' E 033°01'0 0.0
2018-Jun-07 01:20N 34°39' E 033°01'0 0.0
2018-Jun-07 01:00N 34°39' E 033°01'0 0.1
2018-Jun-07 00:27N 34°39' E 033°01'0 0.0
2018-Jun-06 23:51N 34°39' E 033°01'0 0.0
2018-Jun-06 23:20N 34°39' E 033°01'0 0.0
2018-Jun-06 22:59N 34°39' E 033°01'0 0.0
2018-Jun-06 22:26N 34°39' E 033°01'0 0.0
2018-Jun-06 21:50N 34°39' E 033°01'0 0.7
2018-Jun-06 21:28N 34°39' E 033°01'0 1.0
2018-Jun-06 21:00N 34°39' E 033°01'1 0.0
2018-Jun-06 03:55N 34°39' E 033°02'1 0.2
2018-Jun-05 19:25N 34°39' E 033°01'  
2018-Jun-03 13:30N 34°39' E 033°01'0 0.0
2018-Jun-03 08:07N 34°39' E 033°01'0 0.0
2018-Jun-03 07:55N 34°39' E 033°01'0 0.0
2018-Jun-02 07:02N 34°39' E 033°01'0 0.0
2018-Jun-02 06:50N 34°39' E 033°01'0 0.0
2018-Jun-01 13:31N 34°39' E 033°01'0 0.0
2018-Jun-01 13:12N 34°39' E 033°01'0 0.0
2018-Jun-01 13:00N 34°39' E 033°01'0 0.0
2018-Jun-01 09:29N 34°39' E 033°01'0 0.0
2018-May-31 17:22N 34°39' E 033°01'0 0.0
2018-May-31 16:58N 34°39' E 033°01'0 0.0
2018-May-30 17:42N 34°39' E 033°01'0 0.0
2018-May-30 17:29N 34°39' E 033°01'  

Dump ship's entire track history